createdAt,value
2022-10-18T00:00:50.086Z,1011.89
2022-10-18T00:01:50.174Z,1011.90
2022-10-18T00:02:50.081Z,1011.85
2022-10-18T00:03:50.028Z,1011.85
2022-10-18T00:04:50.038Z,1011.90
2022-10-18T00:05:50.051Z,1011.91
2022-10-18T00:06:50.028Z,1011.93
2022-10-18T00:07:49.979Z,1011.95
2022-10-18T00:08:49.970Z,1011.84
2022-10-18T00:09:49.958Z,1011.86
2022-10-18T00:10:50.037Z,1011.88
2022-10-18T00:11:49.987Z,1011.89
2022-10-18T00:12:49.943Z,1011.92
2022-10-18T00:13:49.912Z,1011.96
2022-10-18T00:14:49.898Z,1011.94
2022-10-18T00:15:49.897Z,1011.94
2022-10-18T00:16:49.878Z,1011.95
2022-10-18T00:17:49.964Z,1011.97
2022-10-18T00:18:49.881Z,1011.96
2022-10-18T00:19:49.848Z,1011.92
2022-10-18T00:20:49.835Z,1012.01
2022-10-18T00:21:49.826Z,1011.96
2022-10-18T00:22:49.893Z,1011.96
2022-10-18T00:23:49.814Z,1011.96
2022-10-18T00:24:49.836Z,1011.96
2022-10-18T00:25:51.379Z,1012.00
2022-10-18T00:26:49.767Z,1011.98
2022-10-18T00:27:49.836Z,1011.97
2022-10-18T00:28:49.845Z,1012.01
2022-10-18T00:29:49.744Z,1011.97
2022-10-18T00:31:49.713Z,1012.08
2022-10-18T00:32:49.731Z,1012.08
2022-10-18T00:33:49.700Z,1012.07
2022-10-18T00:34:49.739Z,1012.16
2022-10-18T00:35:49.670Z,1012.22
2022-10-18T00:36:49.658Z,1012.17
2022-10-18T00:37:49.652Z,1012.18
2022-10-18T00:38:49.664Z,1012.17
2022-10-18T00:39:49.754Z,1012.24
2022-10-18T00:40:49.670Z,1012.22
2022-10-18T00:41:49.614Z,1012.24
2022-10-18T00:42:49.589Z,1012.28
2022-10-18T00:43:49.645Z,1012.22
2022-10-18T00:44:49.569Z,1012.24
2022-10-18T00:45:49.558Z,1012.24
2022-10-18T00:46:49.558Z,1012.23
2022-10-18T00:47:49.566Z,1012.25
2022-10-18T00:48:49.614Z,1012.23
2022-10-18T00:49:49.569Z,1012.25
2022-10-18T00:50:49.502Z,1012.22
2022-10-18T00:51:49.497Z,1012.22
2022-10-18T00:52:49.543Z,1012.17
2022-10-18T00:53:49.479Z,1012.15
2022-10-18T00:54:49.523Z,1012.16
2022-10-18T00:55:49.452Z,1012.12
2022-10-18T00:56:49.441Z,1012.19
2022-10-18T00:57:49.472Z,1012.14
2022-10-18T00:58:49.433Z,1012.18
2022-10-18T00:59:49.485Z,1012.16
2022-10-18T01:00:49.392Z,1012.17
2022-10-18T01:01:49.464Z,1012.17
2022-10-18T01:02:49.377Z,1012.18
2022-10-18T01:03:49.365Z,1012.17
2022-10-18T01:04:49.364Z,1012.20
2022-10-18T01:05:49.397Z,1012.19
2022-10-18T01:06:49.363Z,1012.21
2022-10-18T01:07:49.316Z,1012.21
2022-10-18T01:08:49.419Z,1012.27
2022-10-18T01:09:49.292Z,1012.22
2022-10-18T01:10:49.319Z,1012.24
2022-10-18T01:11:49.319Z,1012.27
2022-10-18T01:12:49.266Z,1012.38
2022-10-18T01:13:49.251Z,1012.30
2022-10-18T01:14:49.285Z,1012.31
2022-10-18T01:15:49.265Z,1012.37
2022-10-18T01:16:49.263Z,1012.35
2022-10-18T01:17:49.211Z,1012.37
2022-10-18T01:18:49.249Z,1012.32
2022-10-18T01:19:49.188Z,1012.35
2022-10-18T01:20:49.183Z,1012.36
2022-10-18T01:21:49.240Z,1012.31
2022-10-18T01:22:49.172Z,1012.33
2022-10-18T01:23:49.141Z,1012.35
2022-10-18T01:24:49.251Z,1012.34
2022-10-18T01:25:49.145Z,1012.33
2022-10-18T01:26:49.126Z,1012.33
2022-10-18T01:27:49.143Z,1012.36
2022-10-18T01:28:49.863Z,1012.39
2022-10-18T01:29:49.117Z,1012.36
2022-10-18T01:30:49.158Z,1012.42
2022-10-18T01:31:49.083Z,1012.41
2022-10-18T01:32:49.088Z,1012.42
2022-10-18T01:33:49.127Z,1012.44
2022-10-18T01:34:49.017Z,1012.40
2022-10-18T01:35:49.006Z,1012.37
2022-10-18T01:36:49.024Z,1012.35
2022-10-18T01:37:49.115Z,1012.37
2022-10-18T01:38:48.974Z,1012.36
2022-10-18T01:39:48.969Z,1012.34
2022-10-18T01:40:48.952Z,1012.26
2022-10-18T01:41:48.943Z,1012.35
2022-10-18T01:42:49.850Z,1012.28
2022-10-18T01:43:48.976Z,1012.26
2022-10-18T01:44:48.912Z,1012.29
2022-10-18T01:45:48.907Z,1012.21
2022-10-18T01:46:48.925Z,1012.22
2022-10-18T01:47:48.878Z,1012.37
2022-10-18T01:48:49.355Z,1012.34
2022-10-18T01:49:48.895Z,1012.35
2022-10-18T01:50:48.847Z,1012.32
2022-10-18T01:51:48.866Z,1012.30
2022-10-18T01:52:48.818Z,1012.17
2022-10-18T01:53:48.809Z,1012.18
2022-10-18T01:54:48.819Z,1012.27
2022-10-18T01:55:49.808Z,1012.23
2022-10-18T01:56:48.785Z,1012.23
2022-10-18T01:57:48.764Z,1012.31
2022-10-18T01:58:48.805Z,1012.30
2022-10-18T01:59:48.739Z,1012.26
2022-10-18T02:00:48.797Z,1012.26
2022-10-18T02:01:48.744Z,1012.26
2022-10-18T02:02:48.723Z,1012.26
2022-10-18T02:03:48.702Z,1012.25
2022-10-18T02:04:48.688Z,1012.24
2022-10-18T02:05:49.359Z,1012.28
2022-10-18T02:06:48.715Z,1012.27
2022-10-18T02:07:55.304Z,1012.28
2022-10-18T02:08:48.653Z,1012.22
2022-10-18T02:09:48.670Z,1012.23
2022-10-18T02:10:48.636Z,1012.29
2022-10-18T02:11:48.607Z,1012.26
2022-10-18T02:12:48.648Z,1012.25
2022-10-18T02:13:48.650Z,1012.29
2022-10-18T02:14:48.595Z,1012.27
2022-10-18T02:15:48.612Z,1012.32
2022-10-18T02:16:48.555Z,1012.31
2022-10-18T02:17:48.543Z,1012.23
2022-10-18T02:18:48.560Z,1012.29
2022-10-18T02:19:48.567Z,1012.26
2022-10-18T02:20:48.523Z,1012.33
2022-10-18T02:21:49.320Z,1012.32
2022-10-18T02:22:48.516Z,1012.28
2022-10-18T02:23:48.482Z,1012.38
2022-10-18T02:24:48.548Z,1012.37
2022-10-18T02:25:48.463Z,1012.28
2022-10-18T02:26:48.447Z,1012.28
2022-10-18T02:27:48.438Z,1012.33
2022-10-18T02:28:48.420Z,1012.30
2022-10-18T02:29:48.440Z,1012.29
2022-10-18T02:30:48.477Z,1012.35
2022-10-18T02:31:48.401Z,1012.27
2022-10-18T02:32:48.375Z,1012.37
2022-10-18T02:33:48.364Z,1012.40
2022-10-18T02:34:48.353Z,1012.45
2022-10-18T02:35:48.346Z,1012.37
2022-10-18T02:36:48.403Z,1012.40
2022-10-18T02:37:48.329Z,1012.42
2022-10-18T02:38:48.311Z,1012.39
2022-10-18T02:39:48.298Z,1012.40
2022-10-18T02:40:48.290Z,1012.39
2022-10-18T02:41:48.306Z,1012.39
2022-10-18T02:42:48.319Z,1012.41
2022-10-18T02:43:48.269Z,1012.35
2022-10-18T02:44:48.257Z,1012.36
2022-10-18T02:45:48.235Z,1012.36
2022-10-18T02:46:48.243Z,1012.34
2022-10-18T02:47:48.264Z,1012.44
2022-10-18T02:48:48.208Z,1012.42
2022-10-18T02:49:48.209Z,1012.44
2022-10-18T02:50:48.178Z,1012.44
2022-10-18T02:51:48.169Z,1012.44
2022-10-18T02:52:48.203Z,1012.40
2022-10-18T02:53:48.177Z,1012.41
2022-10-18T02:54:48.143Z,1012.42
2022-10-18T02:55:48.122Z,1012.38
2022-10-18T02:56:48.165Z,1012.41
2022-10-18T02:57:48.102Z,1012.42
2022-10-18T02:58:48.138Z,1012.38
2022-10-18T02:59:48.079Z,1012.47
2022-10-18T03:00:48.070Z,1012.41
2022-10-18T03:01:48.136Z,1012.49
2022-10-18T03:02:48.114Z,1012.51
2022-10-18T03:03:48.034Z,1012.46
2022-10-18T03:04:48.027Z,1012.47
2022-10-18T03:05:48.081Z,1012.53
2022-10-18T03:06:48.016Z,1012.51
2022-10-18T03:07:47.993Z,1012.54
2022-10-18T03:08:48.033Z,1012.42
2022-10-18T03:09:47.966Z,1012.52
2022-10-18T03:10:47.957Z,1012.46
2022-10-18T03:11:47.998Z,1012.44
2022-10-18T03:12:47.946Z,1012.45
2022-10-18T03:13:47.938Z,1012.45
2022-10-18T03:14:47.914Z,1012.44
2022-10-18T03:15:47.906Z,1012.49
2022-10-18T03:16:47.891Z,1012.47
2022-10-18T03:17:47.930Z,1012.46
2022-10-18T03:18:47.896Z,1012.46
2022-10-18T03:19:47.860Z,1012.47
2022-10-18T03:20:47.851Z,1012.50
2022-10-18T03:21:47.849Z,1012.45
2022-10-18T03:22:47.858Z,1012.46
2022-10-18T03:23:48.341Z,1012.47
2022-10-18T03:24:47.824Z,1012.47
2022-10-18T03:25:47.790Z,1012.49
2022-10-18T03:26:47.779Z,1012.55
2022-10-18T03:27:47.784Z,1012.51
2022-10-18T03:28:47.850Z,1012.56
2022-10-18T03:29:47.801Z,1012.50
2022-10-18T03:30:47.773Z,1012.54
2022-10-18T03:31:47.732Z,1012.52
2022-10-18T03:32:47.713Z,1012.50
2022-10-18T03:33:47.701Z,1012.52
2022-10-18T03:34:47.743Z,1012.57
2022-10-18T03:35:47.818Z,1012.53
2022-10-18T03:36:47.670Z,1012.50
2022-10-18T03:37:47.657Z,1012.51
2022-10-18T03:38:47.658Z,1012.51
2022-10-18T03:39:47.653Z,1012.50
2022-10-18T03:40:47.663Z,1012.52
2022-10-18T03:41:47.678Z,1012.48
2022-10-18T03:42:47.602Z,1012.50
2022-10-18T03:43:47.597Z,1012.41
2022-10-18T03:44:47.595Z,1012.49
2022-10-18T03:45:47.570Z,1012.41
2022-10-18T03:46:47.570Z,1012.49
2022-10-18T03:47:47.609Z,1012.50
2022-10-18T03:48:47.537Z,1012.49
2022-10-18T03:49:47.527Z,1012.49
2022-10-18T03:50:47.578Z,1012.48
2022-10-18T03:51:47.507Z,1012.49
2022-10-18T03:52:47.498Z,1012.47
2022-10-18T03:53:47.525Z,1012.52
2022-10-18T03:54:47.522Z,1012.52
2022-10-18T03:55:47.458Z,1012.52
2022-10-18T03:56:47.463Z,1012.48
2022-10-18T03:57:47.485Z,1012.47
2022-10-18T03:58:47.448Z,1012.46
2022-10-18T03:59:47.416Z,1012.47
2022-10-18T04:00:47.411Z,1012.51
2022-10-18T04:01:47.872Z,1012.52
2022-10-18T04:02:50.711Z,1012.57
2022-10-18T04:03:47.382Z,1012.59
2022-10-18T04:04:47.375Z,1012.50
2022-10-18T04:05:47.350Z,1012.54
2022-10-18T04:06:47.384Z,1012.50
2022-10-18T04:07:47.409Z,1012.49
2022-10-18T04:08:47.368Z,1012.52
2022-10-18T04:09:47.322Z,1012.42
2022-10-18T04:10:47.315Z,1012.41
2022-10-18T04:11:47.282Z,1012.42
2022-10-18T04:12:47.274Z,1012.34
2022-10-18T04:13:47.276Z,1012.35
2022-10-18T04:14:47.306Z,1012.35
2022-10-18T04:15:47.251Z,1012.27
2022-10-18T04:16:47.234Z,1012.27
2022-10-18T04:17:47.221Z,1012.31
2022-10-18T04:18:47.210Z,1012.36
2022-10-18T04:19:47.240Z,1012.31
2022-10-18T04:20:47.227Z,1012.39
2022-10-18T04:21:47.186Z,1012.36
2022-10-18T04:22:47.183Z,1012.39
2022-10-18T04:23:47.153Z,1012.40
2022-10-18T04:24:47.204Z,1012.42
2022-10-18T04:25:47.142Z,1012.37
2022-10-18T04:26:47.120Z,1012.43
2022-10-18T04:27:47.131Z,1012.41
2022-10-18T04:28:47.181Z,1012.46
2022-10-18T04:29:47.084Z,1012.39
2022-10-18T04:30:47.159Z,1012.40
2022-10-18T04:31:47.064Z,1012.42
2022-10-18T04:32:47.062Z,1012.38
2022-10-18T04:33:47.070Z,1012.37
2022-10-18T04:34:47.114Z,1012.42
2022-10-18T04:35:47.019Z,1012.37
2022-10-18T04:36:47.008Z,1012.36
2022-10-18T04:37:47.001Z,1012.35
2022-10-18T04:38:47.057Z,1012.32
2022-10-18T04:39:49.917Z,1012.36
2022-10-18T04:40:46.966Z,1012.33
2022-10-18T04:41:47.034Z,1012.28
2022-10-18T04:42:46.951Z,1012.31
2022-10-18T04:43:46.935Z,1012.28
2022-10-18T04:44:46.940Z,1012.32
2022-10-18T04:45:46.912Z,1012.29
2022-10-18T04:46:46.955Z,1012.34
2022-10-18T04:47:46.891Z,1012.30
2022-10-18T04:48:46.887Z,1012.30
2022-10-18T04:49:46.909Z,1012.33
2022-10-18T04:50:46.907Z,1012.35
2022-10-18T04:51:46.844Z,1012.29
2022-10-18T04:52:46.881Z,1012.32
2022-10-18T04:53:46.826Z,1012.30
2022-10-18T04:54:46.837Z,1012.29
2022-10-18T04:55:46.860Z,1012.28
2022-10-18T04:56:46.829Z,1012.33
2022-10-18T04:57:46.781Z,1012.33
2022-10-18T04:58:46.774Z,1012.31
2022-10-18T04:59:46.754Z,1012.30
2022-10-18T05:00:46.749Z,1012.27
2022-10-18T05:01:46.902Z,1012.30
2022-10-18T05:02:46.783Z,1012.28
2022-10-18T05:03:46.710Z,1012.27
2022-10-18T05:04:46.701Z,1012.28
2022-10-18T05:06:02.792Z,1012.27
2022-10-18T05:06:47.690Z,1012.23
2022-10-18T05:07:46.674Z,1012.20
2022-10-18T05:08:46.709Z,1012.25
2022-10-18T05:09:46.698Z,1012.18
2022-10-18T05:10:46.714Z,1012.17
2022-10-18T05:11:46.699Z,1012.17
2022-10-18T05:12:46.617Z,1012.06
2022-10-18T05:13:48.619Z,1012.11
2022-10-18T05:14:46.617Z,1012.04
2022-10-18T05:15:46.587Z,1012.04
2022-10-18T05:16:46.570Z,1012.03
2022-10-18T05:17:46.569Z,1012.00
2022-10-18T05:18:46.594Z,1011.97
2022-10-18T05:19:46.546Z,1011.95
2022-10-18T05:20:46.530Z,1011.97
2022-10-18T05:21:46.512Z,1011.95
2022-10-18T05:22:46.556Z,1011.91
2022-10-18T05:23:46.512Z,1011.90
2022-10-18T05:24:46.489Z,1011.89
2022-10-18T05:25:46.482Z,1011.85
2022-10-18T05:26:46.483Z,1011.86
2022-10-18T05:27:46.457Z,1011.90
2022-10-18T05:28:46.566Z,1011.91
2022-10-18T05:29:46.425Z,1011.87
2022-10-18T05:30:46.422Z,1011.86
2022-10-18T05:31:46.432Z,1011.91
2022-10-18T05:32:46.397Z,1011.89
2022-10-18T05:33:46.426Z,1011.90
2022-10-18T05:34:46.442Z,1011.97
2022-10-18T05:35:46.357Z,1011.94
2022-10-18T05:36:46.358Z,1011.87
2022-10-18T05:37:46.355Z,1011.87
2022-10-18T05:38:46.325Z,1011.87
2022-10-18T05:39:46.313Z,1011.84
2022-10-18T05:40:46.350Z,1011.86
2022-10-18T05:41:46.298Z,1011.88
2022-10-18T05:42:46.309Z,1011.84
2022-10-18T05:43:46.342Z,1011.86
2022-10-18T05:44:46.261Z,1011.85
2022-10-18T05:45:46.258Z,1011.81
2022-10-18T05:46:46.255Z,1011.81
2022-10-18T05:47:46.227Z,1011.86
2022-10-18T05:48:46.274Z,1011.80
2022-10-18T05:49:46.249Z,1011.87
2022-10-18T05:50:46.193Z,1011.80
2022-10-18T05:51:46.200Z,1011.80
2022-10-18T05:52:46.220Z,1011.81
2022-10-18T05:53:46.161Z,1011.79
2022-10-18T05:54:46.210Z,1011.73
2022-10-18T05:55:46.142Z,1011.75
2022-10-18T05:56:46.126Z,1011.72
2022-10-18T05:57:46.154Z,1011.73
2022-10-18T05:58:46.140Z,1011.73
2022-10-18T05:59:46.149Z,1011.74
2022-10-18T06:00:46.104Z,1011.69
2022-10-18T06:01:46.104Z,1011.77
2022-10-18T06:02:46.116Z,1011.75
2022-10-18T06:03:46.050Z,1011.74
2022-10-18T06:04:46.085Z,1011.75
2022-10-18T06:05:46.039Z,1011.73
2022-10-18T06:06:46.086Z,1011.74
2022-10-18T06:07:46.037Z,1011.75
2022-10-18T06:08:45.998Z,1011.73
2022-10-18T06:09:46.000Z,1011.75
2022-10-18T06:10:45.973Z,1011.71
2022-10-18T06:11:46.117Z,1011.69
2022-10-18T06:12:45.965Z,1011.71
2022-10-18T06:13:45.974Z,1011.68
2022-10-18T06:14:45.947Z,1011.70
2022-10-18T06:15:45.932Z,1011.68
2022-10-18T06:16:45.952Z,1011.67
2022-10-18T06:17:45.961Z,1011.65
2022-10-18T06:18:45.888Z,1011.63
2022-10-18T06:19:45.921Z,1011.64
2022-10-18T06:20:45.891Z,1011.63
2022-10-18T06:21:45.908Z,1011.62
2022-10-18T06:22:45.853Z,1011.67
2022-10-18T06:23:45.837Z,1011.69
2022-10-18T06:24:45.866Z,1011.68
2022-10-18T06:25:45.819Z,1011.75
2022-10-18T06:26:45.800Z,1011.73
2022-10-18T06:27:45.810Z,1011.73
2022-10-18T06:28:45.851Z,1011.78
2022-10-18T06:29:45.823Z,1011.74
2022-10-18T06:30:45.781Z,1011.74
2022-10-18T06:31:45.753Z,1011.71
2022-10-18T06:32:45.730Z,1011.77
2022-10-18T06:33:45.723Z,1011.78
2022-10-18T06:34:45.715Z,1011.81
2022-10-18T06:35:45.750Z,1011.81
2022-10-18T06:36:45.695Z,1011.78
2022-10-18T06:37:45.692Z,1011.77
2022-10-18T06:38:45.665Z,1011.75
2022-10-18T06:39:45.753Z,1011.73
2022-10-18T06:40:45.651Z,1011.71
2022-10-18T06:41:46.198Z,1011.65
2022-10-18T06:42:55.135Z,1011.64
2022-10-18T06:43:45.615Z,1011.59
2022-10-18T06:44:45.667Z,1011.51
2022-10-18T06:45:45.595Z,1011.52
2022-10-18T06:46:45.607Z,1011.51
2022-10-18T06:47:45.590Z,1011.48
2022-10-18T06:48:45.565Z,1011.47
2022-10-18T06:49:45.600Z,1011.44
2022-10-18T06:50:45.642Z,1011.51
2022-10-18T06:51:45.524Z,1011.46
2022-10-18T06:52:45.525Z,1011.54
2022-10-18T06:53:59.169Z,1011.52
2022-10-18T06:54:45.596Z,1011.50
2022-10-18T06:55:45.537Z,1011.51
2022-10-18T06:56:45.492Z,1011.52
2022-10-18T06:57:45.502Z,1011.52
2022-10-18T06:58:45.540Z,1011.56
2022-10-18T06:59:45.483Z,1011.57
2022-10-18T07:00:45.426Z,1011.56
2022-10-18T07:01:45.484Z,1011.58
2022-10-18T07:02:45.470Z,1011.55
2022-10-18T07:03:45.414Z,1011.48
2022-10-18T07:04:45.388Z,1011.45
2022-10-18T07:05:45.378Z,1011.47
2022-10-18T07:06:45.381Z,1011.45
2022-10-18T07:07:45.430Z,1011.48
2022-10-18T07:08:45.388Z,1011.52
2022-10-18T07:09:45.368Z,1011.52
2022-10-18T07:10:45.325Z,1011.49
2022-10-18T07:11:45.369Z,1011.52
2022-10-18T07:12:45.292Z,1011.52
2022-10-18T07:13:45.288Z,1011.52
2022-10-18T07:14:45.274Z,1011.52
2022-10-18T07:15:45.314Z,1011.56
2022-10-18T07:16:45.262Z,1011.54
2022-10-18T07:17:45.238Z,1011.48
2022-10-18T07:18:45.244Z,1011.58
2022-10-18T07:19:45.230Z,1011.54
2022-10-18T07:20:45.215Z,1011.52
2022-10-18T07:21:45.246Z,1011.59
2022-10-18T07:22:45.186Z,1011.49
2022-10-18T07:23:45.173Z,1011.57
2022-10-18T07:24:45.233Z,1011.50
2022-10-18T07:25:45.160Z,1011.53
2022-10-18T07:26:45.139Z,1011.49
2022-10-18T07:27:45.164Z,1011.52
2022-10-18T07:28:45.173Z,1011.45
2022-10-18T07:29:45.113Z,1011.48
2022-10-18T07:30:45.153Z,1011.48
2022-10-18T07:31:45.087Z,1011.56
2022-10-18T07:32:45.119Z,1011.65
2022-10-18T07:33:45.114Z,1011.64
2022-10-18T07:34:45.073Z,1011.75
2022-10-18T07:35:45.049Z,1011.77
2022-10-18T07:36:45.110Z,1011.80
2022-10-18T07:37:45.018Z,1011.89
2022-10-18T07:38:45.017Z,1011.87
2022-10-18T07:39:45.008Z,1011.90
2022-10-18T07:40:44.996Z,1011.92
2022-10-18T07:41:45.023Z,1011.88
2022-10-18T07:42:44.977Z,1011.97
2022-10-18T07:43:45.091Z,1011.88
2022-10-18T07:44:44.951Z,1011.90
2022-10-18T07:45:44.957Z,1011.82
2022-10-18T07:46:44.927Z,1011.83
2022-10-18T07:47:44.911Z,1011.78
2022-10-18T07:48:44.903Z,1011.85
2022-10-18T07:49:44.940Z,1011.75
2022-10-18T07:50:44.918Z,1011.74
2022-10-18T07:51:44.883Z,1011.74
2022-10-18T07:52:44.906Z,1011.75
2022-10-18T07:53:44.844Z,1011.76
2022-10-18T07:54:44.937Z,1011.88
2022-10-18T07:55:44.836Z,1011.84
2022-10-18T07:56:44.861Z,1011.89
2022-10-18T07:57:44.802Z,1011.86
2022-10-18T07:58:44.794Z,1011.91
2022-10-18T07:59:44.778Z,1011.90
2022-10-18T08:00:44.765Z,1011.94
2022-10-18T08:01:44.853Z,1011.89
2022-10-18T08:02:44.761Z,1011.92
2022-10-18T08:03:44.739Z,1011.91
2022-10-18T08:04:44.723Z,1012.00
2022-10-18T08:05:44.730Z,1012.07
2022-10-18T08:06:44.767Z,1011.96
2022-10-18T08:07:44.707Z,1011.93
2022-10-18T08:08:44.706Z,1012.00
2022-10-18T08:09:44.669Z,1012.02
2022-10-18T08:10:44.682Z,1012.04
2022-10-18T08:11:44.723Z,1012.06
2022-10-18T08:12:44.635Z,1012.12
2022-10-18T08:13:44.640Z,1012.12
2022-10-18T08:14:44.632Z,1012.18
2022-10-18T08:15:44.603Z,1012.02
2022-10-18T08:16:44.607Z,1011.98
2022-10-18T08:17:44.658Z,1011.95
2022-10-18T08:18:44.612Z,1012.01
2022-10-18T08:19:52.907Z,1011.95
2022-10-18T08:20:44.562Z,1011.97
2022-10-18T08:21:44.568Z,1011.95
2022-10-18T08:22:44.637Z,1012.01
2022-10-18T08:23:44.521Z,1012.01
2022-10-18T08:24:44.548Z,1012.02
2022-10-18T08:25:44.560Z,1012.09
2022-10-18T08:26:44.542Z,1012.04
2022-10-18T08:27:44.507Z,1012.09
2022-10-18T08:28:53.634Z,1012.07
2022-10-18T08:29:44.533Z,1012.08
2022-10-18T08:30:44.483Z,1012.11
2022-10-18T08:31:44.500Z,1012.09
2022-10-18T08:32:44.421Z,1012.10
2022-10-18T08:33:44.409Z,1012.09
2022-10-18T08:34:44.396Z,1012.11
2022-10-18T08:35:44.387Z,1012.17
2022-10-18T08:36:44.388Z,1012.11
2022-10-18T08:37:44.426Z,1012.13
2022-10-18T08:38:44.370Z,1012.19
2022-10-18T08:39:44.341Z,1012.18
2022-10-18T08:40:44.328Z,1012.14
2022-10-18T08:41:44.329Z,1012.16
2022-10-18T08:42:44.318Z,1012.17
2022-10-18T08:43:44.359Z,1012.13
2022-10-18T08:44:44.285Z,1012.15
2022-10-18T08:45:44.283Z,1012.14
2022-10-18T08:46:44.263Z,1012.07
2022-10-18T08:47:44.251Z,1012.06
2022-10-18T08:48:44.286Z,1012.04
2022-10-18T08:49:46.837Z,1012.10
2022-10-18T08:50:44.215Z,1012.14
2022-10-18T08:51:44.205Z,1012.15
2022-10-18T08:52:44.220Z,1012.14
2022-10-18T08:53:44.228Z,1012.15
2022-10-18T08:54:44.203Z,1012.12
2022-10-18T08:55:44.213Z,1012.14
2022-10-18T08:56:44.151Z,1012.25
2022-10-18T08:57:44.160Z,1012.23
2022-10-18T08:58:44.139Z,1012.27
2022-10-18T08:59:44.183Z,1012.30
2022-10-18T09:00:44.114Z,1012.39
2022-10-18T09:01:44.268Z,1012.39
2022-10-18T09:02:44.090Z,1012.40
2022-10-18T09:03:44.121Z,1012.42
2022-10-18T09:04:44.122Z,1012.38
2022-10-18T09:05:44.057Z,1012.39
2022-10-18T09:06:44.047Z,1012.33
2022-10-18T09:07:44.034Z,1012.30
2022-10-18T09:08:44.031Z,1012.27
2022-10-18T09:09:44.008Z,1012.27
2022-10-18T09:10:44.063Z,1012.26
2022-10-18T09:11:43.991Z,1012.24
2022-10-18T09:12:43.990Z,1012.21
2022-10-18T09:13:43.966Z,1012.25
2022-10-18T09:14:44.455Z,1012.23
2022-10-18T09:15:44.010Z,1012.25
2022-10-18T09:16:43.931Z,1012.33
2022-10-18T09:17:43.932Z,1012.26
2022-10-18T09:18:43.907Z,1012.26
2022-10-18T09:19:43.899Z,1012.28
2022-10-18T09:20:43.885Z,1012.33
2022-10-18T09:21:43.940Z,1012.27
2022-10-18T09:22:43.863Z,1012.32
2022-10-18T09:23:43.863Z,1012.23
2022-10-18T09:24:43.843Z,1012.27
2022-10-18T09:25:43.833Z,1012.21
2022-10-18T09:26:43.841Z,1012.16
2022-10-18T09:27:43.860Z,1012.15
2022-10-18T09:28:43.899Z,1012.11
2022-10-18T09:29:43.803Z,1012.04
2022-10-18T09:30:43.779Z,1012.05
2022-10-18T09:31:43.765Z,1012.04
2022-10-18T09:32:43.767Z,1011.98
2022-10-18T09:33:43.789Z,1011.97
2022-10-18T09:34:43.752Z,1011.91
2022-10-18T09:35:43.792Z,1011.88
2022-10-18T09:36:43.710Z,1011.86
2022-10-18T09:37:43.701Z,1011.83
2022-10-18T09:38:43.699Z,1011.80
2022-10-18T09:39:43.723Z,1011.82
2022-10-18T09:40:43.688Z,1011.84
2022-10-18T09:41:43.725Z,1011.94
2022-10-18T09:42:43.695Z,1011.88
2022-10-18T09:43:43.641Z,1011.98
2022-10-18T09:44:43.635Z,1011.96
2022-10-18T09:45:43.685Z,1012.05
2022-10-18T09:46:43.637Z,1012.07
2022-10-18T09:47:43.611Z,1012.03
2022-10-18T09:48:43.616Z,1012.12
2022-10-18T09:49:43.615Z,1012.09
2022-10-18T09:50:43.574Z,1012.13
2022-10-18T09:51:43.614Z,1012.21
2022-10-18T09:52:43.539Z,1012.19
2022-10-18T09:53:43.521Z,1012.22
2022-10-18T09:54:43.510Z,1012.28
2022-10-18T09:55:43.506Z,1012.25
2022-10-18T09:56:43.564Z,1012.35
2022-10-18T09:57:43.580Z,1012.30
2022-10-18T09:58:43.481Z,1012.35
2022-10-18T09:59:43.457Z,1012.34
2022-10-18T10:00:43.457Z,1012.33
2022-10-18T10:01:43.432Z,1012.33
2022-10-18T10:02:43.443Z,1012.37
2022-10-18T10:03:43.458Z,1012.41
2022-10-18T10:04:43.433Z,1012.36
2022-10-18T10:05:43.399Z,1012.42
2022-10-18T10:06:43.382Z,1012.42
2022-10-18T10:07:43.368Z,1012.47
2022-10-18T10:08:43.406Z,1012.49
2022-10-18T10:09:43.399Z,1012.55
2022-10-18T10:10:43.332Z,1012.51
2022-10-18T10:11:43.367Z,1012.53
2022-10-18T10:12:43.320Z,1012.55
2022-10-18T10:13:43.308Z,1012.61
2022-10-18T10:14:43.309Z,1012.63
2022-10-18T10:15:43.289Z,1012.67
2022-10-18T10:16:43.307Z,1012.58
2022-10-18T10:17:43.304Z,1012.59
2022-10-18T10:18:43.301Z,1012.57
2022-10-18T10:19:43.244Z,1012.56
2022-10-18T10:20:43.223Z,1012.52
2022-10-18T10:21:43.248Z,1012.52
2022-10-18T10:22:43.199Z,1012.48
2022-10-18T10:23:43.241Z,1012.51
2022-10-18T10:24:43.177Z,1012.52
2022-10-18T10:25:43.166Z,1012.46
2022-10-18T10:26:43.158Z,1012.50
2022-10-18T10:27:43.155Z,1012.48
2022-10-18T10:28:43.220Z,1012.50
2022-10-18T10:29:44.818Z,1012.46
2022-10-18T10:30:43.129Z,1012.43
2022-10-18T10:31:43.148Z,1012.45
2022-10-18T10:32:43.113Z,1012.42
2022-10-18T10:33:43.092Z,1012.40
2022-10-18T10:34:44.811Z,1012.49
2022-10-18T10:35:53.412Z,1012.39
2022-10-18T10:36:44.112Z,1012.42
2022-10-18T10:37:43.034Z,1012.47
2022-10-18T10:38:43.033Z,1012.45
2022-10-18T10:39:51.208Z,1012.50
2022-10-18T10:40:43.050Z,1012.46
2022-10-18T10:41:42.994Z,1012.49
2022-10-18T10:42:43.031Z,1012.47
2022-10-18T10:43:42.967Z,1012.47
2022-10-18T10:44:42.970Z,1012.48
2022-10-18T10:45:42.945Z,1012.48
2022-10-18T10:46:43.534Z,1012.57
2022-10-18T10:47:42.929Z,1012.53
2022-10-18T10:48:42.968Z,1012.55
2022-10-18T10:49:42.945Z,1012.59
2022-10-18T10:50:42.906Z,1012.60
2022-10-18T10:51:42.979Z,1012.61
2022-10-18T10:52:43.093Z,1012.57
2022-10-18T10:53:42.916Z,1012.57
2022-10-18T10:54:44.682Z,1012.59
2022-10-18T10:55:42.839Z,1012.62
2022-10-18T10:56:42.877Z,1012.60
2022-10-18T10:57:42.840Z,1012.62
2022-10-18T10:58:42.815Z,1012.61
2022-10-18T10:59:42.795Z,1012.63
2022-10-18T11:00:42.792Z,1012.60
2022-10-18T11:01:42.813Z,1012.61
2022-10-18T11:02:50.142Z,1012.63
2022-10-18T11:03:43.892Z,1012.59
2022-10-18T11:04:42.789Z,1012.56
2022-10-18T11:05:42.727Z,1012.57
2022-10-18T11:06:42.716Z,1012.60
2022-10-18T11:07:42.752Z,1012.51
2022-10-18T11:08:42.746Z,1012.50
2022-10-18T11:09:42.726Z,1012.50
2022-10-18T11:10:42.676Z,1012.47
2022-10-18T11:11:42.680Z,1012.47
2022-10-18T11:12:42.651Z,1012.45
2022-10-18T11:13:42.691Z,1012.41
2022-10-18T11:14:42.656Z,1012.44
2022-10-18T11:15:42.678Z,1012.44
2022-10-18T11:16:42.606Z,1012.44
2022-10-18T11:17:42.659Z,1012.48
2022-10-18T11:18:42.608Z,1012.47
2022-10-18T11:19:42.580Z,1012.47
2022-10-18T11:20:42.617Z,1012.47
2022-10-18T11:21:42.587Z,1012.51
2022-10-18T11:22:42.544Z,1012.58
2022-10-18T11:23:42.529Z,1012.65
2022-10-18T11:24:42.519Z,1012.62
2022-10-18T11:25:42.521Z,1012.65
2022-10-18T11:26:43.740Z,1012.68
2022-10-18T11:27:42.486Z,1012.63
2022-10-18T11:28:42.573Z,1012.68
2022-10-18T11:29:42.469Z,1012.68
2022-10-18T11:30:42.460Z,1012.72
2022-10-18T11:31:42.471Z,1012.70
2022-10-18T11:32:42.496Z,1012.66
2022-10-18T11:34:07.235Z,1012.69
2022-10-18T11:34:42.429Z,1012.62
2022-10-18T11:35:42.402Z,1012.60
2022-10-18T11:36:49.450Z,1012.62
2022-10-18T11:37:42.745Z,1012.62
2022-10-18T11:38:42.425Z,1012.61
2022-10-18T11:39:42.354Z,1012.57
2022-10-18T11:40:42.349Z,1012.67
2022-10-18T11:41:42.339Z,1012.68
2022-10-18T11:42:42.375Z,1012.74
2022-10-18T11:44:01.181Z,1012.74
2022-10-18T11:44:42.352Z,1012.76
2022-10-18T11:45:42.291Z,1012.77
2022-10-18T11:46:42.291Z,1012.74
2022-10-18T11:47:42.266Z,1012.75
2022-10-18T11:48:42.317Z,1012.78
2022-10-18T11:49:42.248Z,1012.88
2022-10-18T11:50:42.263Z,1012.91
2022-10-18T11:52:03.278Z,1012.85
2022-10-18T11:52:42.235Z,1012.94
2022-10-18T11:53:42.206Z,1012.88
2022-10-18T11:54:42.246Z,1012.88
2022-10-18T11:55:42.222Z,1012.89
2022-10-18T11:56:42.217Z,1012.88
2022-10-18T11:57:42.158Z,1012.86
2022-10-18T11:58:42.163Z,1012.86
2022-10-18T11:59:42.178Z,1012.85
2022-10-18T12:00:42.143Z,1012.86
2022-10-18T12:01:42.162Z,1012.83
2022-10-18T12:02:42.152Z,1012.89
2022-10-18T12:03:42.116Z,1012.83
2022-10-18T12:04:53.093Z,1012.86
2022-10-18T12:05:43.087Z,1012.84
2022-10-18T12:06:42.076Z,1012.85